Time;durP1;ratioP1;P1;durP2;ratioP2;P2;SDS_P1;SDS_P2;PMS_P1;PMS_P2;Temp;Humidity;BMP_temperature;BMP_pressure;BME280_temperature;BME280_humidity;BME280_pressure;Samples;Min_cycle;Max_cycle;Signal;HPM_P1;HPM_P2
2023/06/07 00:01:21;;;;;;;;;;;;;;;;;;5053595;28;20019;-74
2023/06/07 00:03:48;;;;;;;;;;;;;;;;;;5053210;28;19931;-74
2023/06/07 00:06:16;;;;;;;;;;;;;;;;;;5053568;28;19932;-75
2023/06/07 00:08:44;;;;;;;;;;;;;;;;;;5043994;28;19968;-74
2023/06/07 00:11:11;;;;;;;;;;;;;;;;;;5047145;28;19925;-75
2023/06/07 00:13:40;;;;;;;;;;;;;;;;;;5052072;28;21319;-74
2023/06/07 00:16:07;;;;;;;;;;;;;;;;;;5052638;28;20360;-74
2023/06/07 00:18:34;;;;;;;;;;;;;;;;;;5042313;28;20020;-74
2023/06/07 00:21:00;;;;;;;;;;;;;;;;;;5033369;28;20024;-74
2023/06/07 00:23:28;;;;;;;;;;;;;;;;;;5033286;28;19971;-74
2023/06/07 00:25:56;;;;;;;;;;;;;;;;;;5047938;28;19958;-74
2023/06/07 00:28:23;;;;;;;;;;;;;;;;;;5052259;28;19924;-74
2023/06/07 00:30:50;;;;;;;;;;;;;;;;;;5052382;28;20015;-74
2023/06/07 00:33:17;;;;;;;;;;;;;;;;;;5051732;28;20015;-74
2023/06/07 00:35:44;;;;;;;;;;;;;;;;;;5052270;28;20023;-74
2023/06/07 00:38:11;;;;;;;;;;;;;;;;;;5051928;28;19925;-74
2023/06/07 00:40:38;;;;;;;;;;;;;;;;;;5051372;28;19925;-73
2023/06/07 00:43:05;;;;;;;;;;;;;;;;;;5051722;28;20012;-74
2023/06/07 00:45:32;;;;;;;;;;;;;;;;;;5052361;28;20344;-74
2023/06/07 00:47:59;;;;;;;;;;;;;;;;;;5052340;28;19925;-74
2023/06/07 00:50:26;;;;;;;;;;;;;;;;;;5045140;28;20001;-73
2023/06/07 00:52:53;;;;;;;;;;;;;;;;;;5033245;28;20341;-73
2023/06/07 00:55:20;;;;;;;;;;;;;;;;;;5034311;28;20020;-74
2023/06/07 00:57:47;;;;;;;;;;;;;;;;;;5052362;28;19971;-73
2023/06/07 01:00:15;;;;;;;;;;;;;;;;;;5051742;28;19976;-73
2023/06/07 01:02:46;;;;;;;;;;;;;;;;;;5052697;28;19925;-73
2023/06/07 01:05:14;;;;;;;;;;;;;;;;;;5052670;28;19927;-73
2023/06/07 01:07:41;;;;;;;;;;;;;;;;;;5050625;28;19929;-73
2023/06/07 01:10:08;;;;;;;;;;;;;;;;;;5052396;28;19925;-73
2023/06/07 01:12:35;;;;;;;;;;;;;;;;;;5051740;28;20035;-73
2023/06/07 01:15:02;;;;;;;;;;;;;;;;;;5051783;28;19975;-74
2023/06/07 01:17:30;;;;;;;;;;;;;;;;;;5039451;28;19925;-74
2023/06/07 01:19:58;;;;;;;;;;;;;;;;;;5041446;28;20419;-74
2023/06/07 01:22:27;;;;;;;;;;;;;;;;;;5031898;28;20008;-75
2023/06/07 01:24:55;;;;;;;;;;;;;;;;;;5032146;28;20464;-74
2023/06/07 01:27:27;;;;;;;;;;;;;;;;;;5046315;28;19931;-74
2023/06/07 01:29:54;;;;;;;;;;;;;;;;;;5040429;28;19928;-75
2023/06/07 01:32:21;;;;;;;;;;;;;;;;;;5052182;28;19925;-73
2023/06/07 01:34:48;;;;;;;;;;;;;;;;;;5043277;28;20019;-73
2023/06/07 01:37:15;;;;;;;;;;;;;;;;;;5056385;28;20011;-74
2023/06/07 01:39:42;;;;;;;;;;;;;;;;;;5054995;28;19929;-73
2023/06/07 01:42:09;;;;;;;;;;;;;;;;;;5036299;28;20383;-74
2023/06/07 01:44:36;;;;;;;;;;;;;;;;;;5049024;28;19925;-73
2023/06/07 01:47:03;;;;;;;;;;;;;;;;;;5056037;28;20012;-72
2023/06/07 01:49:30;;;;;;;;;;;;;;;;;;5050960;28;19931;-72
2023/06/07 01:51:57;;;;;;;;;;;;;;;;;;5036444;28;20023;-73
2023/06/07 01:54:24;;;;;;;;;;;;;;;;;;5054834;28;20031;-73
2023/06/07 01:56:51;;;;;;;;;;;;;;;;;;5055563;28;20293;-73
2023/06/07 01:59:18;;;;;;;;;;;;;;;;;;5040867;28;20013;-74
2023/06/07 02:01:45;;;;;;;;;;;;;;;;;;5035863;28;20027;-73
2023/06/07 02:04:12;;;;;;;;;;;;;;;;;;5035840;28;19925;-73
2023/06/07 02:06:40;;;;;;;;;;;;;;;;;;5041771;28;19925;-73
2023/06/07 02:09:07;;;;;;;;;;;;;;;;;;5055104;28;19924;-74
2023/06/07 02:11:34;;;;;;;;;;;;;;;;;;5054495;28;19929;-73
2023/06/07 02:14:01;;;;;;;;;;;;;;;;;;5055690;28;20007;-72
2023/06/07 02:16:28;;;;;;;;;;;;;;;;;;5055136;28;19931;-73
2023/06/07 02:18:57;;;;;;;;;;;;;;;;;;5046462;28;20019;-74
2023/06/07 02:21:24;;;;;;;;;;;;;;;;;;5055385;28;19928;-74
2023/06/07 02:23:51;;;;;;;;;;;;;;;;;;5049623;28;19925;-74
2023/06/07 02:26:20;;;;;;;;;;;;;;;;;;5035192;28;20388;-73
2023/06/07 02:28:47;;;;;;;;;;;;;;;;;;5043229;28;19925;-74
2023/06/07 02:31:14;;;;;;;;;;;;;;;;;;5052499;28;19925;-74
2023/06/07 02:33:41;;;;;;;;;;;;;;;;;;5035256;28;19967;-74
2023/06/07 02:36:08;;;;;;;;;;;;;;;;;;5045067;28;19967;-74
2023/06/07 02:38:35;;;;;;;;;;;;;;;;;;5053733;28;20011;-73
2023/06/07 02:41:02;;;;;;;;;;;;;;;;;;5053045;28;19983;-74
2023/06/07 02:43:29;;;;;;;;;;;;;;;;;;5054275;28;20330;-75
2023/06/07 02:45:56;;;;;;;;;;;;;;;;;;5054209;28;19983;-74
2023/06/07 02:48:23;;;;;;;;;;;;;;;;;;5054943;28;19925;-74
2023/06/07 02:50:50;;;;;;;;;;;;;;;;;;5044928;28;19931;-74
2023/06/07 02:53:17;;;;;;;;;;;;;;;;;;5054076;28;20027;-74
2023/06/07 02:55:44;;;;;;;;;;;;;;;;;;5054869;28;19955;-74
2023/06/07 02:58:13;;;;;;;;;;;;;;;;;;5044556;28;20019;-73
2023/06/07 03:00:40;;;;;;;;;;;;;;;;;;5036970;28;20308;-74
2023/06/07 03:03:07;;;;;;;;;;;;;;;;;;5036259;28;20003;-73
2023/06/07 03:05:34;;;;;;;;;;;;;;;;;;5039303;28;20015;-73
2023/06/07 03:08:01;;;;;;;;;;;;;;;;;;5034774;28;19933;-73
2023/06/07 03:10:28;;;;;;;;;;;;;;;;;;5039422;28;19999;-72
2023/06/07 03:12:55;;;;;;;;;;;;;;;;;;5039217;28;20395;-73
2023/06/07 03:15:22;;;;;;;;;;;;;;;;;;5042562;28;20291;-73
2023/06/07 03:17:49;;;;;;;;;;;;;;;;;;5036474;28;19967;-73
2023/06/07 03:20:18;;;;;;;;;;;;;;;;;;5034991;28;19968;-73
2023/06/07 03:22:45;;;;;;;;;;;;;;;;;;5029748;28;19931;-73
2023/06/07 03:25:12;;;;;;;;;;;;;;;;;;5039022;28;20311;-73
2023/06/07 03:27:39;;;;;;;;;;;;;;;;;;5046484;28;19945;-74
2023/06/07 03:30:06;;;;;;;;;;;;;;;;;;5029405;28;19928;-72
2023/06/07 03:32:33;;;;;;;;;;;;;;;;;;5030539;28;20036;-73
2023/06/07 03:35:00;;;;;;;;;;;;;;;;;;5031960;28;19990;-74
2023/06/07 03:37:27;;;;;;;;;;;;;;;;;;5031805;28;20159;-73
2023/06/07 03:39:54;;;;;;;;;;;;;;;;;;5037269;28;20438;-74
2023/06/07 03:42:21;;;;;;;;;;;;;;;;;;5030737;28;19933;-73
2023/06/07 03:44:48;;;;;;;;;;;;;;;;;;5029599;28;19929;-74
2023/06/07 03:47:15;;;;;;;;;;;;;;;;;;5029873;28;19935;-73
2023/06/07 03:49:43;;;;;;;;;;;;;;;;;;5028255;28;20032;-73
2023/06/07 03:52:10;;;;;;;;;;;;;;;;;;5035582;28;19963;-74
2023/06/07 03:54:37;;;;;;;;;;;;;;;;;;5039653;28;20039;-74
2023/06/07 03:57:05;;;;;;;;;;;;;;;;;;5034707;28;20065;-72
2023/06/07 03:59:32;;;;;;;;;;;;;;;;;;5033320;28;19948;-75
2023/06/07 04:02:00;;;;;;;;;;;;;;;;;;5028305;28;19935;-74
2023/06/07 04:04:27;;;;;;;;;;;;;;;;;;5030195;28;19932;-74
2023/06/07 04:06:55;;;;;;;;;;;;;;;;;;5030084;28;19933;-74
2023/06/07 04:09:22;;;;;;;;;;;;;;;;;;5034724;28;20272;-74
2023/06/07 04:11:48;;;;;;;;;;;;;;;;;;5028548;28;20015;-74
2023/06/07 04:14:15;;;;;;;;;;;;;;;;;;5029508;28;19956;-74
2023/06/07 04:16:42;;;;;;;;;;;;;;;;;;5028990;28;19929;-74
2023/06/07 04:19:09;;;;;;;;;;;;;;;;;;5028275;28;19939;-75
2023/06/07 04:21:37;;;;;;;;;;;;;;;;;;5028280;28;19940;-75
2023/06/07 04:24:04;;;;;;;;;;;;;;;;;;5033830;28;19963;-75
2023/06/07 04:26:31;;;;;;;;;;;;;;;;;;5028682;28;19929;-74
2023/06/07 04:28:58;;;;;;;;;;;;;;;;;;5029954;28;19936;-73
2023/06/07 04:31:29;;;;;;;;;;;;;;;;;;5028876;28;20020;-74
2023/06/07 04:33:57;;;;;;;;;;;;;;;;;;5029142;28;20638;-73
2023/06/07 04:36:25;;;;;;;;;;;;;;;;;;5028197;28;19994;-72
2023/06/07 04:38:52;;;;;;;;;;;;;;;;;;5030114;28;19933;-73
2023/06/07 04:41:19;;;;;;;;;;;;;;;;;;5031758;28;19932;-73
2023/06/07 04:43:48;;;;;;;;;;;;;;;;;;5029850;28;20027;-71
2023/06/07 04:46:15;;;;;;;;;;;;;;;;;;5028580;28;21937;-73
2023/06/07 04:48:43;;;;;;;;;;;;;;;;;;5028974;28;20036;-71
2023/06/07 04:51:10;;;;;;;;;;;;;;;;;;5032980;28;19972;-73
2023/06/07 04:53:37;;;;;;;;;;;;;;;;;;5028899;28;20047;-73
2023/06/07 04:56:04;;;;;;;;;;;;;;;;;;5034095;28;19936;-74
2023/06/07 04:58:31;;;;;;;;;;;;;;;;;;5028494;28;19955;-73
2023/06/07 05:00:58;;;;;;;;;;;;;;;;;;5027657;28;19932;-73
2023/06/07 05:03:25;;;;;;;;;;;;;;;;;;5028519;28;19933;-73
2023/06/07 05:05:52;;;;;;;;;;;;;;;;;;5028277;28;19968;-73
2023/06/07 05:08:19;;;;;;;;;;;;;;;;;;5029249;28;19933;-74
2023/06/07 05:10:46;;;;;;;;;;;;;;;;;;5032362;28;20002;-74
2023/06/07 05:13:13;;;;;;;;;;;;;;;;;;5025734;28;20019;-73
2023/06/07 05:15:40;;;;;;;;;;;;;;;;;;5039135;28;19925;-73
2023/06/07 05:18:07;;;;;;;;;;;;;;;;;;5034867;28;19936;-73
2023/06/07 05:20:34;;;;;;;;;;;;;;;;;;5037908;28;19925;-74
2023/06/07 05:23:02;;;;;;;;;;;;;;;;;;5037559;28;20003;-74
2023/06/07 05:25:29;;;;;;;;;;;;;;;;;;5049463;28;19967;-72
2023/06/07 05:27:56;;;;;;;;;;;;;;;;;;5034770;28;20281;-70
2023/06/07 05:30:24;;;;;;;;;;;;;;;;;;5043219;28;20326;-73
2023/06/07 05:32:51;;;;;;;;;;;;;;;;;;5039959;28;20284;-73
2023/06/07 05:35:18;;;;;;;;;;;;;;;;;;5049803;28;19931;-74
2023/06/07 05:37:45;;;;;;;;;;;;;;;;;;5051534;28;19931;-75
2023/06/07 05:40:16;;;;;;;;;;;;;;;;;;5041915;28;20004;-73
2023/06/07 05:42:42;;;;;;;;;;;;;;;;;;5041734;28;19925;-72
2023/06/07 05:45:09;;;;;;;;;;;;;;;;;;5046552;28;20003;-73
2023/06/07 05:47:36;;;;;;;;;;;;;;;;;;5033266;28;20288;-73
2023/06/07 05:50:04;;;;;;;;;;;;;;;;;;5037027;28;19936;-73
2023/06/07 05:52:31;;;;;;;;;;;;;;;;;;5038362;28;20004;-73
2023/06/07 05:54:58;;;;;;;;;;;;;;;;;;5046948;28;20016;-75
2023/06/07 05:57:25;;;;;;;;;;;;;;;;;;5043052;28;20395;-75
2023/06/07 05:59:52;;;;;;;;;;;;;;;;;;5037249;28;20020;-74
2023/06/07 06:02:20;;;;;;;;;;;;;;;;;;5038415;28;20008;-74
2023/06/07 06:04:48;;;;;;;;;;;;;;;;;;5044350;28;19925;-75
2023/06/07 06:07:15;;;;;;;;;;;;;;;;;;5032644;28;20024;-74
2023/06/07 06:09:42;;;;;;;;;;;;;;;;;;5036699;28;20364;-73
2023/06/07 06:12:09;;;;;;;;;;;;;;;;;;5034744;28;19925;-73
2023/06/07 06:14:36;;;;;;;;;;;;;;;;;;5031442;28;20354;-73
2023/06/07 06:17:03;;;;;;;;;;;;;;;;;;5039847;28;19978;-73
2023/06/07 06:19:30;;;;;;;;;;;;;;;;;;5042961;28;20449;-73
2023/06/07 06:21:57;;;;;;;;;;;;;;;;;;5044387;28;20467;-73
2023/06/07 06:24:24;;;;;;;;;;;;;;;;;;5043326;28;20424;-74
2023/06/07 06:26:51;;;;;;;;;;;;;;;;;;5051553;28;20330;-74
2023/06/07 06:29:18;;;;;;;;;;;;;;;;;;5040982;28;19967;-75
2023/06/07 06:31:45;;;;;;;;;;;;;;;;;;5048285;28;20110;-70
2023/06/07 06:34:13;;;;;;;;;;;;;;;;;;5050328;28;20024;-70
2023/06/07 06:36:40;;;;;;;;;;;;;;;;;;5040588;28;19978;-70
2023/06/07 06:39:08;;;;;;;;;;;;;;;;;;5053161;28;20273;-69
2023/06/07 06:41:35;;;;;;;;;;;;;;;;;;5038468;28;19925;-73
2023/06/07 06:44:02;;;;;;;;;;;;;;;;;;5049899;28;19925;-74
2023/06/07 06:46:29;;;;;;;;;;;;;;;;;;5045699;28;20111;-74
2023/06/07 06:48:56;;;;;;;;;;;;;;;;;;5042755;28;19978;-75
2023/06/07 06:51:23;;;;;;;;;;;;;;;;;;5045563;28;19931;-76
2023/06/07 06:53:50;;;;;;;;;;;;;;;;;;5037176;28;20011;-73
2023/06/07 06:56:17;;;;;;;;;;;;;;;;;;5044663;28;19925;-74
2023/06/07 06:58:46;;;;;;;;;;;;;;;;;;5041351;28;19929;-74
2023/06/07 07:01:13;;;;;;;;;;;;;;;;;;5042516;28;20660;-74
2023/06/07 07:03:41;;;;;;;;;;;;;;;;;;5033929;28;19970;-74
2023/06/07 07:06:08;;;;;;;;;;;;;;;;;;5039799;28;19936;-74
2023/06/07 07:08:35;;;;;;;;;;;;;;;;;;5039976;28;19948;-74
2023/06/07 07:11:02;;;;;;;;;;;;;;;;;;5046448;28;20007;-73
2023/06/07 07:13:29;;;;;;;;;;;;;;;;;;5042078;28;19928;-73
2023/06/07 07:15:56;;;;;;;;;;;;;;;;;;5042446;28;20032;-74
2023/06/07 07:18:23;;;;;;;;;;;;;;;;;;5047476;28;19990;-73
2023/06/07 07:20:50;;;;;;;;;;;;;;;;;;5043230;28;20034;-73
2023/06/07 07:23:18;;;;;;;;;;;;;;;;;;5041746;22;20028;-73
2023/06/07 07:25:45;;;;;;;;;;;;;;;;;;5028932;28;19932;-72
2023/06/07 07:28:12;;;;;;;;;;;;;;;;;;5029922;28;20059;-73
2023/06/07 07:30:38;;;;;;;;;;;;;;;;;;5034752;28;19925;-74
2023/06/07 07:33:06;;;;;;;;;;;;;;;;;;5043897;28;19973;-72
2023/06/07 07:35:33;;;;;;;;;;;;;;;;;;5037620;28;19931;-73
2023/06/07 07:38:02;;;;;;;;;;;;;;;;;;5044143;28;20445;-73
2023/06/07 07:40:29;;;;;;;;;;;;;;;;;;5039626;28;19929;-74
2023/06/07 07:42:56;;;;;;;;;;;;;;;;;;5042429;28;19936;-73
2023/06/07 07:45:23;;;;;;;;;;;;;;;;;;5033952;28;19978;-73
2023/06/07 07:47:50;;;;;;;;;;;;;;;;;;5038501;28;20439;-73
2023/06/07 07:50:17;;;;;;;;;;;;;;;;;;5030963;28;20289;-72
2023/06/07 07:52:44;;;;;;;;;;;;;;;;;;5037187;28;19975;-70
2023/06/07 07:55:11;;;;;;;;;;;;;;;;;;5038132;28;20024;-71
2023/06/07 07:57:38;;;;;;;;;;;;;;;;;;5028334;28;19940;-71
2023/06/07 08:00:05;;;;;;;;;;;;;;;;;;5044803;28;20015;-71
2023/06/07 08:02:32;;;;;;;;;;;;;;;;;;5036892;28;20019;-72
2023/06/07 08:05:00;;;;;;;;;;;;;;;;;;5031194;28;19947;-72
2023/06/07 08:07:27;;;;;;;;;;;;;;;;;;5029116;28;19990;-71
2023/06/07 08:09:54;;;;;;;;;;;;;;;;;;5031531;28;19931;-71
2023/06/07 08:12:21;;;;;;;;;;;;;;;;;;5043921;28;19925;-72
2023/06/07 08:14:48;;;;;;;;;;;;;;;;;;5050023;28;19971;-74
2023/06/07 08:17:15;;;;;;;;;;;;;;;;;;5032526;28;20035;-73
2023/06/07 08:19:42;;;;;;;;;;;;;;;;;;5029474;28;19932;-73
2023/06/07 08:22:09;;;;;;;;;;;;;;;;;;5033941;28;19979;-74
2023/06/07 08:24:36;;;;;;;;;;;;;;;;;;5023424;28;19925;-74
2023/06/07 08:27:03;;;;;;;;;;;;;;;;;;5036873;28;19963;-72
2023/06/07 08:29:30;;;;;;;;;;;;;;;;;;5029778;28;20024;-72
2023/06/07 08:31:57;;;;;;;;;;;;;;;;;;5021273;28;20438;-70
2023/06/07 08:34:27;;;;;;;;;;;;;;;;;;5033050;28;19925;-73
2023/06/07 08:36:54;;;;;;;;;;;;;;;;;;5029747;28;19925;-73
2023/06/07 08:39:21;;;;;;;;;;;;;;;;;;5012203;28;20349;-73
2023/06/07 08:41:48;;;;;;;;;;;;;;;;;;5028107;28;20420;-73
2023/06/07 08:44:15;;;;;;;;;;;;;;;;;;5037253;28;20339;-73
2023/06/07 08:46:42;;;;;;;;;;;;;;;;;;5029336;28;19971;-72
2023/06/07 08:49:09;;;;;;;;;;;;;;;;;;5023771;28;19939;-73
2023/06/07 08:51:37;;;;;;;;;;;;;;;;;;5025890;28;19925;-73
2023/06/07 08:54:04;;;;;;;;;;;;;;;;;;5030784;28;19940;-74
2023/06/07 08:56:32;;;;;;;;;;;;;;;;;;5023876;28;20017;-75
2023/06/07 08:58:59;;;;;;;;;;;;;;;;;;5028099;28;19929;-74
2023/06/07 09:01:27;;;;;;;;;;;;;;;;;;5027545;28;19952;-75
2023/06/07 09:03:54;;;;;;;;;;;;;;;;;;5027374;28;19925;-74
2023/06/07 09:06:21;;;;;;;;;;;;;;;;;;5029056;28;19933;-74
2023/06/07 09:08:48;;;;;;;;;;;;;;;;;;5028349;28;19925;-74
2023/06/07 09:11:15;;;;;;;;;;;;;;;;;;5027468;28;20380;-74
2023/06/07 09:13:42;;;;;;;;;;;;;;;;;;5027099;28;19925;-74
2023/06/07 09:16:09;;;;;;;;;;;;;;;;;;5027467;28;19933;-74
2023/06/07 09:18:36;;;;;;;;;;;;;;;;;;5027201;28;20036;-74
2023/06/07 09:21:03;;;;;;;;;;;;;;;;;;5024313;28;19925;-74
2023/06/07 09:23:30;;;;;;;;;;;;;;;;;;5027761;28;20025;-74
2023/06/07 09:25:57;;;;;;;;;;;;;;;;;;5040114;28;19925;-74
2023/06/07 09:28:24;;;;;;;;;;;;;;;;;;5029978;28;20453;-74
2023/06/07 09:30:51;;;;;;;;;;;;;;;;;;5029131;28;22088;-74
2023/06/07 09:33:19;;;;;;;;;;;;;;;;;;5029453;28;19925;-73
2023/06/07 09:35:46;;;;;;;;;;;;;;;;;;5033078;28;19932;-73
2023/06/07 09:38:13;;;;;;;;;;;;;;;;;;5027442;28;19968;-72
2023/06/07 09:40:40;;;;;;;;;;;;;;;;;;5031165;28;19925;-73
2023/06/07 09:43:07;;;;;;;;;;;;;;;;;;5028020;28;20020;-74
2023/06/07 09:45:34;;;;;;;;;;;;;;;;;;5030787;28;20380;-73
2023/06/07 09:48:01;;;;;;;;;;;;;;;;;;5028798;28;20313;-73
2023/06/07 09:50:28;;;;;;;;;;;;;;;;;;5029734;28;19932;-73
2023/06/07 09:52:55;;;;;;;;;;;;;;;;;;5034355;28;20028;-72
2023/06/07 09:55:22;;;;;;;;;;;;;;;;;;5041776;28;20020;-72
2023/06/07 09:57:49;;;;;;;;;;;;;;;;;;5042891;28;19925;-72
2023/06/07 10:00:17;;;;;;;;;;;;;;;;;;5038944;28;19925;-71
2023/06/07 10:02:45;;;;;;;;;;;;;;;;;;5032933;28;19932;-70
2023/06/07 10:05:13;;;;;;;;;;;;;;;;;;5039407;28;19925;-71
2023/06/07 10:07:40;;;;;;;;;;;;;;;;;;5048999;28;19977;-71
2023/06/07 10:10:07;;;;;;;;;;;;;;;;;;5038488;28;19925;-72
2023/06/07 10:12:36;;;;;;;;;;;;;;;;;;5038133;28;20002;-71
2023/06/07 10:15:03;;;;;;;;;;;;;;;;;;5032226;28;19979;-75
2023/06/07 10:17:30;;;;;;;;;;;;;;;;;;5031933;28;20281;-74
2023/06/07 10:19:59;;;;;;;;;;;;;;;;;;5031883;28;19987;-76
2023/06/07 10:22:26;;;;;;;;;;;;;;;;;;5031912;28;19925;-76
2023/06/07 10:24:54;;;;;;;;;;;;;;;;;;5037001;28;20027;-72
2023/06/07 10:27:21;;;;;;;;;;;;;;;;;;5032754;28;19929;-73
2023/06/07 10:29:48;;;;;;;;;;;;;;;;;;5031256;28;19949;-72
2023/06/07 10:32:16;;;;;;;;;;;;;;;;;;5031778;28;20406;-72
2023/06/07 10:34:43;;;;;;;;;;;;;;;;;;5034242;28;19956;-71
2023/06/07 10:37:10;;;;;;;;;;;;;;;;;;5029262;28;19952;-72
2023/06/07 10:39:39;;;;;;;;;;;;;;;;;;5032558;28;19925;-71
2023/06/07 10:42:06;;;;;;;;;;;;;;;;;;5030937;28;19956;-76
2023/06/07 10:44:33;;;;;;;;;;;;;;;;;;5033750;28;19925;-70
2023/06/07 10:47:00;;;;;;;;;;;;;;;;;;5038599;28;19932;-70
2023/06/07 10:49:27;;;;;;;;;;;;;;;;;;5035410;28;20019;-71
2023/06/07 10:51:58;;;;;;;;;;;;;;;;;;5040441;28;19951;-70
2023/06/07 10:54:25;;;;;;;;;;;;;;;;;;5035690;28;19947;-71
2023/06/07 10:56:52;;;;;;;;;;;;;;;;;;5031480;28;19987;-71
2023/06/07 10:59:19;;;;;;;;;;;;;;;;;;5029806;28;20356;-71
2023/06/07 11:01:48;;;;;;;;;;;;;;;;;;5030906;28;19925;-71
2023/06/07 11:04:16;;;;;;;;;;;;;;;;;;5032101;28;19925;-71
2023/06/07 11:06:43;;;;;;;;;;;;;;;;;;5030789;28;19933;-71
2023/06/07 11:09:11;;;;;;;;;;;;;;;;;;5033837;28;20127;-71
2023/06/07 11:11:40;;;;;;;;;;;;;;;;;;5031034;28;19925;-72
2023/06/07 11:14:07;;;;;;;;;;;;;;;;;;5029636;28;19925;-74
2023/06/07 11:16:34;;;;;;;;;;;;;;;;;;5025373;28;19926;-73
2023/06/07 11:19:05;;;;;;;;;;;;;;;;;;5028703;28;19925;-72
2023/06/07 11:21:32;;;;;;;;;;;;;;;;;;5022960;28;19933;-73
2023/06/07 11:23:59;;;;;;;;;;;;;;;;;;5032099;28;20347;-73
2023/06/07 11:26:26;;;;;;;;;;;;;;;;;;5028381;28;20027;-70
2023/06/07 11:28:53;;;;;;;;;;;;;;;;;;5049582;28;20047;-70
2023/06/07 11:31:20;;;;;;;;;;;;;;;;;;5047275;28;19948;-70
2023/06/07 11:33:47;;;;;;;;;;;;;;;;;;5025429;28;20362;-72
2023/06/07 11:36:14;;;;;;;;;;;;;;;;;;5022587;28;20358;-71
2023/06/07 11:38:41;;;;;;;;;;;;;;;;;;5025225;28;20339;-70
2023/06/07 11:41:08;;;;;;;;;;;;;;;;;;5031422;28;19925;-72
2023/06/07 11:43:35;;;;;;;;;;;;;;;;;;5046478;28;19925;-73
2023/06/07 11:46:03;;;;;;;;;;;;;;;;;;5027397;28;19925;-73
2023/06/07 11:48:30;;;;;;;;;;;;;;;;;;5026437;28;19933;-73
2023/06/07 11:50:57;;;;;;;;;;;;;;;;;;5030372;28;20459;-73
2023/06/07 11:53:28;;;;;;;;;;;;;;;;;;5026892;28;20439;-73
2023/06/07 11:55:55;;;;;;;;;;;;;;;;;;5042716;28;19986;-74
2023/06/07 11:58:22;;;;;;;;;;;;;;;;;;5048516;28;19929;-73
2023/06/07 12:00:49;;;;;;;;;;;;;;;;;;5044222;28;20015;-73
2023/06/07 12:03:19;;;;;;;;;;;;;;;;;;5029849;28;20021;-73
2023/06/07 12:05:47;;;;;;;;;;;;;;;;;;5036747;28;20255;-74
2023/06/07 12:08:14;;;;;;;;;;;;;;;;;;5025719;28;19936;-72
2023/06/07 12:10:41;;;;;;;;;;;;;;;;;;5027998;28;20119;-72
2023/06/07 12:13:09;;;;;;;;;;;;;;;;;;5028770;28;20503;-75
2023/06/07 12:15:36;;;;;;;;;;;;;;;;;;5027244;28;20427;-74
2023/06/07 12:18:03;;;;;;;;;;;;;;;;;;5031271;28;20413;-73
2023/06/07 12:20:30;;;;;;;;;;;;;;;;;;5031854;28;19981;-74
2023/06/07 12:22:57;;;;;;;;;;;;;;;;;;5029258;28;19973;-72
2023/06/07 12:25:24;;;;;;;;;;;;;;;;;;5031808;28;20015;-72
2023/06/07 12:27:52;;;;;;;;;;;;;;;;;;5027298;28;20032;-72
2023/06/07 12:30:19;;;;;;;;;;;;;;;;;;5032767;28;20403;-73
2023/06/07 12:32:47;;;;;;;;;;;;;;;;;;5028875;28;19933;-72
2023/06/07 12:35:14;;;;;;;;;;;;;;;;;;5030099;28;20339;-72
2023/06/07 12:37:42;;;;;;;;;;;;;;;;;;5030915;28;19951;-73
2023/06/07 12:40:09;;;;;;;;;;;;;;;;;;5038475;28;20016;-74
2023/06/07 12:42:36;;;;;;;;;;;;;;;;;;5026985;28;20016;-73
2023/06/07 12:45:03;;;;;;;;;;;;;;;;;;5029098;28;20032;-73
2023/06/07 12:47:30;;;;;;;;;;;;;;;;;;5028917;28;19928;-72
2023/06/07 12:49:58;;;;;;;;;;;;;;;;;;5031601;28;20024;-73
2023/06/07 12:52:25;;;;;;;;;;;;;;;;;;5035070;28;20265;-72
2023/06/07 12:54:52;;;;;;;;;;;;;;;;;;5027062;28;21336;-72
2023/06/07 12:57:19;;;;;;;;;;;;;;;;;;5028930;28;19932;-72
2023/06/07 12:59:46;;;;;;;;;;;;;;;;;;5023457;28;20660;-72
2023/06/07 13:02:13;;;;;;;;;;;;;;;;;;5027751;28;20296;-72
2023/06/07 13:04:40;;;;;;;;;;;;;;;;;;5017577;28;20019;-72
2023/06/07 13:07:07;;;;;;;;;;;;;;;;;;5041618;28;19929;-73
2023/06/07 13:09:34;;;;;;;;;;;;;;;;;;5023911;28;20009;-72
2023/06/07 13:12:04;;;;;;;;;;;;;;;;;;5030497;28;20360;-74
2023/06/07 13:14:32;;;;;;;;;;;;;;;;;;5028459;28;20364;-72
2023/06/07 13:16:59;;;;;;;;;;;;;;;;;;5030749;28;20467;-73
2023/06/07 13:19:26;;;;;;;;;;;;;;;;;;5035782;28;19936;-74
2023/06/07 13:21:53;;;;;;;;;;;;;;;;;;5040896;28;19933;-73
2023/06/07 13:24:20;;;;;;;;;;;;;;;;;;5029269;28;20023;-73
2023/06/07 13:26:47;;;;;;;;;;;;;;;;;;5028250;28;20008;-74
2023/06/07 13:29:14;;;;;;;;;;;;;;;;;;5026006;28;19925;-74
2023/06/07 13:31:41;;;;;;;;;;;;;;;;;;5027903;28;20021;-74
2023/06/07 13:34:08;;;;;;;;;;;;;;;;;;5028591;28;20012;-74
2023/06/07 13:36:36;;;;;;;;;;;;;;;;;;5031358;28;20015;-73
2023/06/07 13:39:03;;;;;;;;;;;;;;;;;;5029270;28;19937;-74
2023/06/07 13:41:30;;;;;;;;;;;;;;;;;;5028321;28;20412;-74
2023/06/07 13:43:57;;;;;;;;;;;;;;;;;;5024715;28;19953;-74
2023/06/07 13:46:24;;;;;;;;;;;;;;;;;;5031340;28;20016;-75
2023/06/07 13:48:51;;;;;;;;;;;;;;;;;;5048644;28;19933;-73
2023/06/07 13:51:18;;;;;;;;;;;;;;;;;;5032665;28;19925;-74
2023/06/07 13:53:46;;;;;;;;;;;;;;;;;;5031390;28;20415;-74
2023/06/07 13:56:13;;;;;;;;;;;;;;;;;;5034308;28;19965;-74
2023/06/07 13:58:40;;;;;;;;;;;;;;;;;;5027183;28;19948;-75
2023/06/07 14:01:07;;;;;;;;;;;;;;;;;;5022712;28;19968;-74
2023/06/07 14:03:34;;;;;;;;;;;;;;;;;;5022989;28;19976;-75
2023/06/07 14:06:02;;;;;;;;;;;;;;;;;;5033006;28;20008;-75
2023/06/07 14:08:29;;;;;;;;;;;;;;;;;;5032435;28;20540;-74
2023/06/07 14:10:55;;;;;;;;;;;;;;;;;;5025470;28;20321;-75
2023/06/07 14:13:22;;;;;;;;;;;;;;;;;;5028713;28;19925;-75
2023/06/07 14:15:49;;;;;;;;;;;;;;;;;;5034063;28;19928;-74
2023/06/07 14:18:17;;;;;;;;;;;;;;;;;;5031913;28;19925;-75
2023/06/07 14:20:44;;;;;;;;;;;;;;;;;;5028913;28;19929;-75
2023/06/07 14:23:11;;;;;;;;;;;;;;;;;;5030418;28;19925;-75
2023/06/07 14:25:38;;;;;;;;;;;;;;;;;;5031644;28;20360;-75
2023/06/07 14:28:05;;;;;;;;;;;;;;;;;;5036660;28;19952;-74
2023/06/07 14:30:32;;;;;;;;;;;;;;;;;;5026841;28;19983;-72
2023/06/07 14:32:59;;;;;;;;;;;;;;;;;;5028087;28;19963;-69
2023/06/07 14:35:26;;;;;;;;;;;;;;;;;;5025434;28;19925;-68
2023/06/07 14:37:53;;;;;;;;;;;;;;;;;;5029796;28;19925;-68
2023/06/07 14:40:20;;;;;;;;;;;;;;;;;;5030402;28;20392;-71
2023/06/07 14:42:49;;;;;;;;;;;;;;;;;;5032157;28;20023;-71
2023/06/07 14:45:16;;;;;;;;;;;;;;;;;;5035442;28;20391;-72
2023/06/07 14:47:43;;;;;;;;;;;;;;;;;;5053462;28;19960;-72
2023/06/07 14:50:10;;;;;;;;;;;;;;;;;;5034174;28;20027;-74
2023/06/07 14:52:37;;;;;;;;;;;;;;;;;;5022376;28;20399;-76
2023/06/07 14:55:05;;;;;;;;;;;;;;;;;;5024930;28;19999;-75
2023/06/07 14:57:32;;;;;;;;;;;;;;;;;;5036555;28;20315;-73
2023/06/07 14:59:59;;;;;;;;;;;;;;;;;;5033142;28;20027;-78
2023/06/07 15:02:26;;;;;;;;;;;;;;;;;;5032510;28;19926;-73
2023/06/07 15:04:53;;;;;;;;;;;;;;;;;;5031552;28;20416;-73
2023/06/07 15:07:20;;;;;;;;;;;;;;;;;;5048191;28;20014;-74
2023/06/07 15:09:47;;;;;;;;;;;;;;;;;;5032467;28;19964;-74
2023/06/07 15:12:14;;;;;;;;;;;;;;;;;;5032477;28;20028;-76
2023/06/07 15:14:41;;;;;;;;;;;;;;;;;;5026105;28;19929;-75
2023/06/07 15:17:11;;;;;;;;;;;;;;;;;;5032192;28;19964;-75
2023/06/07 15:19:38;;;;;;;;;;;;;;;;;;5029953;28;19944;-76
2023/06/07 15:22:04;;;;;;;;;;;;;;;;;;5024913;28;20012;-76
2023/06/07 15:24:31;;;;;;;;;;;;;;;;;;5032938;28;19925;-79
2023/06/07 15:26:58;;;;;;;;;;;;;;;;;;5043387;28;20020;-82
2023/06/07 15:29:25;;;;;;;;;;;;;;;;;;5030843;28;19996;-83
2023/06/07 15:31:52;;;;;;;;;;;;;;;;;;5040268;28;19968;-81
2023/06/07 15:34:19;;;;;;;;;;;;;;;;;;5032572;28;20319;-79
2023/06/07 15:36:46;;;;;;;;;;;;;;;;;;5031341;28;19925;-82
2023/06/07 15:39:13;;;;;;;;;;;;;;;;;;5037809;28;19964;-84
2023/06/07 15:41:40;;;;;;;;;;;;;;;;;;5047109;28;19966;-83
2023/06/07 15:44:07;;;;;;;;;;;;;;;;;;5033498;28;20016;-82
2023/06/07 15:46:34;;;;;;;;;;;;;;;;;;5037241;28;20359;-82
2023/06/07 15:49:01;;;;;;;;;;;;;;;;;;5035353;28;20069;-81
2023/06/07 15:51:29;;;;;;;;;;;;;;;;;;5050230;28;19925;-83
2023/06/07 15:53:56;;;;;;;;;;;;;;;;;;5037777;28;19929;-83
2023/06/07 15:56:23;;;;;;;;;;;;;;;;;;5046432;28;19977;-82
2023/06/07 15:58:50;;;;;;;;;;;;;;;;;;5034608;28;19992;-83
2023/06/07 16:01:17;;;;;;;;;;;;;;;;;;5036297;28;19933;-84
2023/06/07 16:03:44;;;;;;;;;;;;;;;;;;5043281;28;19940;-83
2023/06/07 16:06:11;;;;;;;;;;;;;;;;;;5039734;28;19972;-82
2023/06/07 16:08:38;;;;;;;;;;;;;;;;;;5043408;28;19925;-83
2023/06/07 16:11:05;;;;;;;;;;;;;;;;;;5032394;28;19968;-84
2023/06/07 16:13:32;;;;;;;;;;;;;;;;;;5039020;28;19928;-82
2023/06/07 16:15:59;;;;;;;;;;;;;;;;;;5040965;28;19968;-81
2023/06/07 16:18:26;;;;;;;;;;;;;;;;;;5037570;28;20442;-83
2023/06/07 16:20:53;;;;;;;;;;;;;;;;;;5037135;28;19991;-82
2023/06/07 16:23:20;;;;;;;;;;;;;;;;;;5028827;28;20016;-84
2023/06/07 16:25:48;;;;;;;;;;;;;;;;;;5031759;28;19965;-83
2023/06/07 16:28:16;;;;;;;;;;;;;;;;;;5040949;28;19929;-84
2023/06/07 16:30:43;;;;;;;;;;;;;;;;;;5038809;28;19929;-84
2023/06/07 16:33:10;;;;;;;;;;;;;;;;;;5032020;28;20004;-83
2023/06/07 16:35:40;;;;;;;;;;;;;;;;;;5031267;28;19929;-83
2023/06/07 16:38:07;;;;;;;;;;;;;;;;;;5034456;28;20003;-82
2023/06/07 16:40:34;;;;;;;;;;;;;;;;;;5031660;28;19925;-82
2023/06/07 16:43:01;;;;;;;;;;;;;;;;;;5033345;28;19933;-82
2023/06/07 16:45:28;;;;;;;;;;;;;;;;;;5037736;28;20016;-83